Windermere, Canada
Current Conditions -  °F | °C
As of 6:00 AM on Thursday 23 Oct 2014 (Local Time) from CYXC Reporting Station
Light Rain Light Rain  
Wind Chill: 41°   Ceiling: 6000
Heat Index: 46°   Visibility: 15mi
Dew Point: 45°   Wind: 13mph
Humidity: 93%   Direction: 140°SE
Pressure: 29.7"   Gusts: NA
Location:  50.47°N, 115.97°W
Report Text: CYXC 231200Z 14011KT 15SM -RA SCT030 OVC060 08/07 A2970 RMK SC4SC4 SLP065 DENSITY ALT 3200FT
Loading
Personal Weather Stations






























Interactive Weather Map
Tropical Storm Tracking
New forecast layout! Learn more

10-Day Weather Forecast

Advertisements
Track Severe Weather on mobile